Time;durP1;ratioP1;P1;durP2;ratioP2;P2;SDS_P1;SDS_P2;PMS_P1;PMS_P2;Temp;Humidity;BMP_temperature;BMP_pressure;BME280_temperature;BME280_humidity;BME280_pressure;Samples;Min_cycle;Max_cycle;Signal;HPM_P1;HPM_P2
2022/04/24 00:02:21;;;;;;;6.07;4.50;;;;;;;11.11;100.00;97449.78;5040760;28;20200;-80
2022/04/24 00:04:51;;;;;;;7.57;4.37;;;;;;;11.05;100.00;97455.66;5044843;28;20197;-80
2022/04/24 00:07:21;;;;;;;6.37;4.50;;;;;;;11.10;100.00;97444.63;5046746;28;20197;-80
2022/04/24 00:09:50;;;;;;;7.30;5.40;;;;;;;10.99;100.00;97447.44;5047089;28;20220;-79
2022/04/24 00:12:21;;;;;;;5.67;4.77;;;;;;;11.02;100.00;97445.34;5041935;28;20216;-79
2022/04/24 00:14:50;;;;;;;8.27;5.40;;;;;;;11.06;100.00;97441.41;5044348;28;20289;-80
2022/04/24 00:17:22;;;;;;;5.83;4.20;;;;;;;10.96;100.00;97437.97;5064183;28;20652;-79
2022/04/24 00:19:50;;;;;;;9.07;5.53;;;;;;;10.99;100.00;97437.66;5058795;28;20228;-79
2022/04/24 00:22:19;;;;;;;6.23;4.90;;;;;;;11.05;100.00;97438.91;5072002;28;20196;-79
2022/04/24 00:24:49;;;;;;;7.00;4.80;;;;;;;10.96;100.00;97426.53;5071009;28;20226;-79
2022/04/24 00:27:20;;;;;;;5.13;4.63;;;;;;;10.86;100.00;97432.69;5068597;28;20197;-80
2022/04/24 00:29:52;;;;;;;12.80;4.57;;;;;;;10.81;100.00;97429.63;5066371;28;20191;-79
2022/04/24 00:32:21;;;;;;;5.17;4.60;;;;;;;10.85;100.00;97430.19;5070436;28;20203;-79
2022/04/24 00:34:52;;;;;;;5.23;4.50;;;;;;;10.88;100.00;97430.72;5062386;28;20220;-79
2022/04/24 00:37:22;;;;;;;4.97;3.97;;;;;;;10.92;100.00;97426.00;5055839;28;20208;-80
2022/04/24 00:39:52;;;;;;;5.37;4.87;;;;;;;10.86;100.00;97424.72;5058526;28;20205;-79
2022/04/24 00:42:23;;;;;;;4.90;4.40;;;;;;;10.85;100.00;97420.41;5056006;28;20193;-79
2022/04/24 00:44:53;;;;;;;5.80;4.30;;;;;;;10.88;100.00;97422.78;5060107;28;20189;-79
2022/04/24 00:47:26;;;;;;;6.40;4.80;;;;;;;10.72;100.00;97424.38;5052664;28;20193;-79
2022/04/24 00:49:54;;;;;;;5.60;5.00;;;;;;;10.69;100.00;97416.69;5053402;28;20212;-79
2022/04/24 00:52:23;;;;;;;6.00;4.40;;;;;;;10.77;100.00;97411.50;5057871;28;20264;-80
2022/04/24 00:54:53;;;;;;;5.07;4.40;;;;;;;10.92;100.00;97407.44;5035956;28;20217;-81
2022/04/24 00:57:23;;;;;;;5.67;4.73;;;;;;;10.73;100.00;97413.63;5030967;28;20201;-79
2022/04/24 00:59:52;;;;;;;5.30;4.57;;;;;;;10.78;100.00;97407.88;5029589;28;20202;-79
2022/04/24 01:02:21;;;;;;;5.87;4.80;;;;;;;10.66;100.00;97414.31;5036305;28;20202;-79
2022/04/24 01:04:51;;;;;;;6.77;5.37;;;;;;;10.66;100.00;97416.97;4984187;28;20202;-79
2022/04/24 01:07:20;;;;;;;5.57;4.70;;;;;;;10.73;100.00;97413.63;5028878;28;20249;-79
2022/04/24 01:09:49;;;;;;;4.90;4.50;;;;;;;10.56;100.00;97407.22;5031856;28;20201;-80
2022/04/24 01:12:18;;;;;;;6.60;5.47;;;;;;;10.62;100.00;97410.31;5038111;28;20185;-79
2022/04/24 01:14:48;;;;;;;5.90;5.13;;;;;;;10.56;100.00;97398.47;5056967;28;20260;-80
2022/04/24 01:17:18;;;;;;;7.73;5.10;;;;;;;10.66;100.00;97401.94;5060380;28;20201;-79
2022/04/24 01:19:49;;;;;;;5.37;4.87;;;;;;;10.49;100.00;97400.00;4999016;28;20206;-80
2022/04/24 01:22:20;;;;;;;5.63;5.03;;;;;;;10.45;100.00;97394.16;4993274;28;20199;-79
2022/04/24 01:24:48;;;;;;;5.70;5.10;;;;;;;10.49;100.00;97397.34;4915539;29;20209;-80
2022/04/24 01:27:18;;;;;;;5.47;4.83;;;;;;;10.45;100.00;97388.03;4916103;29;20205;-79
2022/04/24 01:29:48;;;;;;;7.17;5.47;;;;;;;10.44;100.00;97402.25;4932429;28;20205;-79
2022/04/24 01:32:17;;;;;;;6.00;5.10;;;;;;;10.42;100.00;97405.03;4919077;29;20297;-80
2022/04/24 01:34:46;;;;;;;5.30;4.80;;;;;;;10.49;100.00;97402.63;4921442;28;20209;-80
2022/04/24 01:37:15;;;;;;;5.40;4.90;;;;;;;10.45;100.00;97401.25;4933463;28;20203;-80
2022/04/24 01:39:46;;;;;;;8.53;5.50;;;;;;;10.46;100.00;97397.63;4993352;28;20199;-80
2022/04/24 01:42:15;;;;;;;5.97;5.20;;;;;;;10.38;100.00;97397.50;5041648;28;20282;-80
2022/04/24 01:44:45;;;;;;;6.00;5.03;;;;;;;10.35;100.00;97400.44;5030589;28;20200;-80
2022/04/24 01:47:14;;;;;;;6.07;5.47;;;;;;;10.29;100.00;97401.81;5037352;28;20205;-78
2022/04/24 01:49:43;;;;;;;7.20;5.47;;;;;;;10.31;100.00;97405.16;5033187;28;20229;-79
2022/04/24 01:52:12;;;;;;;5.90;5.30;;;;;;;10.21;100.00;97402.47;4993981;28;20261;-80
2022/04/24 01:54:41;;;;;;;6.70;4.90;;;;;;;10.14;100.00;97403.19;4991700;28;20301;-79
2022/04/24 01:57:13;;;;;;;5.97;5.23;;;;;;;10.09;100.00;97392.19;4990915;28;20196;-79
2022/04/24 01:59:42;;;;;;;5.83;5.23;;;;;;;9.94;100.00;97397.88;4979410;28;20227;-79
2022/04/24 02:02:14;;;;;;;5.70;5.20;;;;;;;10.08;100.00;97401.09;4934961;29;20197;-80
2022/04/24 02:04:45;;;;;;;6.00;5.40;;;;;;;10.03;100.00;97394.38;4929851;29;20304;-79
2022/04/24 02:07:14;;;;;;;6.13;5.53;;;;;;;9.92;100.00;97399.81;4858017;29;20203;-77
2022/04/24 02:09:47;;;;;;;8.23;6.10;;;;;;;10.01;100.00;97391.06;4854462;29;20214;-79
2022/04/24 02:12:18;;;;;;;9.47;6.77;;;;;;;9.86;100.00;97387.16;4854098;29;20207;-79
2022/04/24 02:14:47;;;;;;;8.43;5.90;;;;;;;10.02;100.00;97389.25;4857414;29;20204;-80
2022/04/24 02:17:24;;;;;;;6.00;5.40;;;;;;;9.93;100.00;97385.59;4897891;29;20237;-80
2022/04/24 02:19:53;;;;;;;6.10;5.50;;;;;;;9.82;100.00;97384.91;4934551;28;20191;-79
2022/04/24 02:22:22;;;;;;;9.40;6.60;;;;;;;9.85;100.00;97382.84;4987907;28;20207;-79
2022/04/24 02:24:50;;;;;;;6.63;5.87;;;;;;;9.94;100.00;97375.88;4984216;28;20199;-79
2022/04/24 02:27:21;;;;;;;6.53;5.93;;;;;;;9.87;100.00;97380.06;4982450;28;20210;-80
2022/04/24 02:29:51;;;;;;;6.90;5.73;;;;;;;9.77;100.00;97374.75;4989746;28;20202;-80
2022/04/24 02:32:23;;;;;;;7.90;5.83;;;;;;;9.61;100.00;97377.91;4989267;28;20237;-80
2022/04/24 02:34:53;;;;;;;10.27;5.90;;;;;;;9.73;100.00;97373.34;4907650;29;20208;-79
2022/04/24 02:37:25;;;;;;;6.70;6.03;;;;;;;9.67;100.00;97371.25;4922861;28;20224;-79
2022/04/24 02:39:55;;;;;;;8.27;6.00;;;;;;;9.63;100.00;97375.97;4951254;29;20227;-79
2022/04/24 02:42:28;;;;;;;8.27;6.40;;;;;;;9.69;100.00;97375.44;4948108;28;20205;-80
2022/04/24 02:45:00;;;;;;;7.37;6.67;;;;;;;9.67;100.00;97371.25;4821877;29;20201;-79
2022/04/24 02:47:28;;;;;;;9.00;6.93;;;;;;;9.64;100.00;97372.34;4786928;29;20213;-79
2022/04/24 02:49:57;;;;;;;7.10;6.33;;;;;;;9.77;100.00;97376.56;4821125;29;20327;-79
2022/04/24 02:52:29;;;;;;;6.90;6.20;;;;;;;9.74;100.00;97375.84;4822287;29;20246;-79
2022/04/24 02:54:58;;;;;;;7.23;6.50;;;;;;;9.82;100.00;97375.16;4807775;29;20658;-79
2022/04/24 02:57:33;;;;;;;8.77;6.93;;;;;;;9.92;100.00;97377.81;4826599;29;20227;-79
2022/04/24 03:00:03;;;;;;;10.83;6.57;;;;;;;9.79;100.00;97379.91;4855022;29;20204;-79
2022/04/24 03:02:31;;;;;;;7.73;6.40;;;;;;;9.82;100.00;97379.63;4817766;29;20703;-79
2022/04/24 03:05:00;;;;;;;8.20;6.87;;;;;;;9.78;100.00;97379.06;4865761;29;20229;-79
2022/04/24 03:07:29;;;;;;;7.37;6.40;;;;;;;9.71;100.00;97372.66;4931623;29;20240;-79
2022/04/24 03:09:59;;;;;;;6.97;6.27;;;;;;;9.79;100.00;97370.16;4932567;29;20197;-79
2022/04/24 03:12:34;;;;;;;7.43;6.73;;;;;;;9.78;100.00;97368.50;4930063;29;20197;-80
2022/04/24 03:15:03;;;;;;;8.03;7.20;;;;;;;9.73;100.00;97366.25;4951003;28;20193;-79
2022/04/24 03:17:32;;;;;;;7.30;6.60;;;;;;;9.69;100.00;97364.03;4987682;28;20226;-79
2022/04/24 03:20:05;;;;;;;8.00;7.20;;;;;;;9.73;100.00;97365.41;4988724;28;20223;-79
2022/04/24 03:22:34;;;;;;;9.17;6.77;;;;;;;9.70;100.00;97360.41;4989811;28;20207;-79
2022/04/24 03:25:05;;;;;;;8.03;6.87;;;;;;;9.68;100.00;97357.06;4987372;28;20203;-79
2022/04/24 03:27:36;;;;;;;8.77;7.13;;;;;;;9.69;100.00;97359.56;5035728;28;20192;-79
2022/04/24 03:30:10;;;;;;;9.70;7.27;;;;;;;9.63;100.00;97356.63;4967314;28;20195;-79
2022/04/24 03:32:38;;;;;;;9.67;6.87;;;;;;;9.63;100.00;97354.81;4976845;28;20278;-79
2022/04/24 03:35:10;;;;;;;7.93;7.13;;;;;;;9.64;100.00;97355.66;4974477;28;20307;-79
2022/04/24 03:37:39;;;;;;;12.27;7.47;;;;;;;9.72;100.00;97358.47;4969268;28;20230;-79
2022/04/24 03:40:08;;;;;;;9.87;6.90;;;;;;;9.77;100.00;97363.34;4972100;28;20256;-79
2022/04/24 03:42:39;;;;;;;9.50;7.13;;;;;;;9.73;100.00;97366.25;4951399;29;20207;-79
2022/04/24 03:45:12;;;;;;;8.30;7.27;;;;;;;9.73;100.00;97365.41;4951827;28;20255;-80
2022/04/24 03:47:45;;;;;;;8.93;7.03;;;;;;;9.74;100.00;97367.09;4922503;28;20199;-79
2022/04/24 03:50:14;;;;;;;7.80;7.00;;;;;;;9.56;100.00;97360.81;4991473;28;20204;-79
2022/04/24 03:52:44;;;;;;;8.10;7.20;;;;;;;9.65;100.00;97359.97;4986254;28;20408;-80
2022/04/24 03:55:13;;;;;;;11.00;7.53;;;;;;;9.63;100.00;97356.63;4988596;28;20241;-79
2022/04/24 03:57:43;;;;;;;8.20;7.33;;;;;;;9.60;100.00;97360.41;4990531;28;20223;-79
2022/04/24 04:00:13;;;;;;;10.00;7.83;;;;;;;9.60;100.00;97365.69;4994236;28;20210;-80
2022/04/24 04:02:45;;;;;;;8.13;7.33;;;;;;;9.56;100.00;97371.38;4990336;28;20233;-80
2022/04/24 04:05:16;;;;;;;8.57;7.67;;;;;;;9.65;100.00;97365.25;4952592;28;20194;-79
2022/04/24 04:07:45;;;;;;;8.70;7.67;;;;;;;9.60;100.00;97370.97;5045910;28;20204;-79
2022/04/24 04:10:14;;;;;;;9.00;7.97;;;;;;;9.55;100.00;97367.88;5050968;28;20193;-79
2022/04/24 04:12:44;;;;;;;8.70;7.73;;;;;;;9.52;100.00;97373.44;5050809;28;20201;-79
2022/04/24 04:15:12;;;;;;;9.13;7.97;;;;;;;9.53;100.00;97371.63;5051183;28;20197;-79
2022/04/24 04:17:41;;;;;;;10.97;8.33;;;;;;;9.61;100.00;97367.34;5054234;28;20221;-80
2022/04/24 04:20:12;;;;;;;9.07;8.17;;;;;;;9.58;100.00;97372.09;5056010;28;20220;-79
2022/04/24 04:22:51;;;;;;;9.33;8.33;;;;;;;9.66;100.00;97369.59;5054775;28;20201;-79
2022/04/24 04:25:21;;;;;;;9.13;8.23;;;;;;;9.59;100.00;97368.47;5058521;28;20602;-79
2022/04/24 04:27:51;;;;;;;9.00;7.90;;;;;;;9.57;100.00;97373.88;5053305;28;20201;-79
2022/04/24 04:30:22;;;;;;;8.80;7.90;;;;;;;9.56;100.00;97374.03;5015385;28;20229;-80
2022/04/24 04:32:51;;;;;;;9.13;8.07;;;;;;;9.56;100.00;97369.59;5010303;28;20210;-79
2022/04/24 04:35:24;;;;;;;10.13;7.97;;;;;;;9.64;100.00;97364.41;5013165;28;20226;-79
2022/04/24 04:37:54;;;;;;;8.93;8.03;;;;;;;9.72;100.00;97369.88;5005630;28;20222;-80
2022/04/24 04:40:22;;;;;;;8.57;7.77;;;;;;;9.79;100.00;97370.16;5011599;28;20190;-79
2022/04/24 04:42:54;;;;;;;9.40;8.50;;;;;;;9.73;100.00;97366.25;5007812;28;20238;-79
2022/04/24 04:45:24;;;;;;;10.33;8.63;;;;;;;9.78;100.00;97368.50;4995977;28;20194;-79
2022/04/24 04:47:54;;;;;;;9.73;8.63;;;;;;;9.78;100.00;97367.66;5010335;28;20238;-79
2022/04/24 04:50:22;;;;;;;8.73;7.83;;;;;;;9.77;100.00;97382.69;5008661;28;20196;-80
2022/04/24 04:52:51;;;;;;;11.23;8.60;;;;;;;9.77;100.00;97373.94;5013786;28;20195;-79
2022/04/24 04:55:20;;;;;;;10.40;9.27;;;;;;;9.73;100.00;97376.00;5037956;28;20239;-79
2022/04/24 04:57:50;;;;;;;9.77;8.43;;;;;;;9.77;100.00;97376.56;5052431;28;20304;-79
2022/04/24 05:00:21;;;;;;;9.90;8.90;;;;;;;9.73;100.00;97382.09;5058140;28;20220;-79
2022/04/24 05:02:50;;;;;;;10.03;8.90;;;;;;;9.71;100.00;97383.22;5054869;28;20204;-80
2022/04/24 05:05:19;;;;;;;9.60;8.70;;;;;;;9.68;100.00;97386.97;5053229;28;20189;-80
2022/04/24 05:07:48;;;;;;;9.97;8.97;;;;;;;9.72;100.00;97377.78;5053956;28;20200;-79
2022/04/24 05:10:16;;;;;;;9.97;8.97;;;;;;;9.72;100.00;97392.81;5056573;28;20247;-79
2022/04/24 05:12:45;;;;;;;9.83;8.43;;;;;;;9.79;100.00;97388.66;5059606;28;20196;-80
2022/04/24 05:15:17;;;;;;;13.13;9.17;;;;;;;9.86;100.00;97384.50;4974752;28;20746;-80
2022/04/24 05:17:47;;;;;;;10.47;9.47;;;;;;;9.85;100.00;97380.19;4967222;28;20699;-80
2022/04/24 05:20:16;;;;;;;12.13;9.07;;;;;;;9.83;100.00;97384.75;4971377;28;20199;-80
2022/04/24 05:22:45;;;;;;;9.97;8.90;;;;;;;9.81;100.00;97377.94;4965393;28;20255;-80
2022/04/24 05:25:14;;;;;;;11.20;9.50;;;;;;;9.93;100.00;97382.97;4965838;28;20219;-81
2022/04/24 05:27:44;;;;;;;10.37;9.27;;;;;;;9.94;100.00;97386.44;4962288;28;20203;-80
2022/04/24 05:30:14;;;;;;;10.97;9.73;;;;;;;9.90;100.00;97385.91;4977148;28;20208;-79
2022/04/24 05:32:46;;;;;;;9.80;8.80;;;;;;;9.88;100.00;97387.84;4986452;28;20201;-80
2022/04/24 05:35:17;;;;;;;12.17;10.17;;;;;;;9.95;100.00;97391.63;5055592;28;20193;-80
2022/04/24 05:37:47;;;;;;;10.50;9.50;;;;;;;9.97;100.00;97394.13;5054140;28;20747;-79
2022/04/24 05:40:17;;;;;;;10.93;9.40;;;;;;;10.06;100.00;97397.75;5052249;28;20189;-79
2022/04/24 05:42:48;;;;;;;10.53;9.33;;;;;;;10.00;100.00;97415.84;5027470;28;20206;-80
2022/04/24 05:45:19;;;;;;;11.83;10.17;;;;;;;10.03;100.00;97422.66;5024077;28;20198;-79
2022/04/24 05:47:48;;;;;;;10.40;9.30;;;;;;;10.00;100.00;97423.75;5027022;28;20277;-79
2022/04/24 05:50:21;;;;;;;9.97;8.97;;;;;;;10.09;100.00;97432.69;5025719;28;20280;-79
2022/04/24 05:52:55;;;;;;;10.50;9.13;;;;;;;10.17;100.00;97450.53;4969682;28;20199;-79
2022/04/24 05:55:25;;;;;;;10.47;9.20;;;;;;;10.20;100.00;97466.09;4971410;28;20200;-79
2022/04/24 05:57:55;;;;;;;9.90;8.77;;;;;;;10.46;100.00;97469.94;4969828;28;20220;-80
2022/04/24 06:00:23;;;;;;;10.53;9.43;;;;;;;10.47;100.00;97492.78;4954173;28;20203;-79
2022/04/24 06:02:55;;;;;;;10.07;9.07;;;;;;;10.49;100.00;97482.03;4958659;28;20205;-79
2022/04/24 06:05:26;;;;;;;10.60;9.50;;;;;;;10.49;100.00;97485.53;4950329;28;20200;-81
2022/04/24 06:07:54;;;;;;;10.73;9.63;;;;;;;10.52;100.00;97479.97;4954414;28;20205;-79
2022/04/24 06:10:25;;;;;;;10.63;9.53;;;;;;;10.57;100.00;97490.13;4962432;28;20274;-80
2022/04/24 06:12:56;;;;;;;10.23;9.23;;;;;;;10.68;100.00;97489.97;4989339;28;20195;-80
2022/04/24 06:15:30;;;;;;;10.40;9.30;;;;;;;10.83;100.00;97490.41;4989327;28;20191;-79
2022/04/24 06:17:59;;;;;;;10.67;9.40;;;;;;;10.81;100.00;97487.06;5004722;28;20227;-79
2022/04/24 06:20:30;;;;;;;11.83;9.10;;;;;;;10.83;100.00;97483.28;5059662;28;20216;-79
2022/04/24 06:23:01;;;;;;;11.20;10.00;;;;;;;10.61;100.00;97491.50;5060374;28;20209;-79
2022/04/24 06:25:32;;;;;;;10.40;9.40;;;;;;;10.72;100.00;97493.22;5060626;28;20200;-80
2022/04/24 06:28:04;;;;;;;11.13;9.93;;;;;;;10.70;100.00;97484.53;5057871;28;20212;-80
2022/04/24 06:30:35;;;;;;;15.47;11.17;;;;;;;10.57;100.00;97483.03;5087764;28;20244;-80
2022/04/24 06:33:03;;;;;;;10.97;9.87;;;;;;;10.44;100.00;97476.34;5084977;28;20227;-80
2022/04/24 06:35:34;;;;;;;11.70;10.33;;;;;;;10.44;100.00;97477.19;5085306;28;20669;-80
2022/04/24 06:38:04;;;;;;;12.13;10.83;;;;;;;10.41;100.00;97476.59;5087885;28;20223;-80
2022/04/24 06:40:34;;;;;;;12.20;10.40;;;;;;;10.45;100.00;97485.94;5084972;28;20847;-79
2022/04/24 06:43:05;;;;;;;12.83;10.90;;;;;;;10.45;100.00;97473.56;5085585;28;20195;-80
2022/04/24 06:45:36;;;;;;;12.07;10.73;;;;;;;10.48;100.00;97464.50;5088141;28;20210;-80
2022/04/24 06:48:07;;;;;;;13.77;11.17;;;;;;;10.49;100.00;97472.28;5077552;28;20193;-80
2022/04/24 06:50:38;;;;;;;12.23;10.33;;;;;;;10.43;100.00;97467.56;4994465;28;20202;-80
2022/04/24 06:53:11;;;;;;;12.83;11.50;;;;;;;10.63;100.00;97468.41;4993257;28;20751;-80
2022/04/24 06:55:41;;;;;;;12.07;10.70;;;;;;;10.63;100.00;97463.09;4989783;28;20203;-80
2022/04/24 06:58:13;;;;;;;12.60;10.73;;;;;;;10.75;100.00;97459.31;4974733;28;20229;-80
2022/04/24 07:00:43;;;;;;;12.67;10.80;;;;;;;10.72;100.00;97454.31;4989602;28;20199;-80
2022/04/24 07:03:33;;;;;;;13.83;11.07;;;;;;;10.73;100.00;97445.41;4994623;28;20198;-80
2022/04/24 07:06:04;;;;;;;12.77;11.37;;;;;;;10.91;100.00;97450.81;4997173;28;20199;-80
2022/04/24 07:08:34;;;;;;;12.47;11.17;;;;;;;10.83;100.00;97454.16;5023759;28;20197;-80
2022/04/24 07:11:03;;;;;;;12.40;10.63;;;;;;;10.76;100.00;97452.22;5052542;28;20238;-80
2022/04/24 07:13:32;;;;;;;13.27;10.83;;;;;;;10.81;100.00;97456.13;5053889;28;20195;-80
2022/04/24 07:16:01;;;;;;;12.30;10.50;;;;;;;10.89;100.00;97455.38;5053476;28;20196;-80
2022/04/24 07:18:30;;;;;;;13.40;11.03;;;;;;;11.10;100.00;97455.22;5045980;28;20225;-80
2022/04/24 07:21:00;;;;;;;12.47;11.17;;;;;;;11.27;100.00;97459.75;5054023;28;20235;-80
2022/04/24 07:23:33;;;;;;;12.53;11.23;;;;;;;11.36;100.00;97450.94;5051374;28;20204;-80
2022/04/24 07:26:03;;;;;;;12.13;10.90;;;;;;;11.34;100.00;97465.31;5050693;28;20652;-81
2022/04/24 07:28:32;;;;;;;13.87;11.27;;;;;;;11.28;100.00;97456.13;5050446;28;20225;-80
2022/04/24 07:31:03;;;;;;;12.20;10.90;;;;;;;11.26;100.00;97458.09;5018240;28;20189;-80
2022/04/24 07:33:32;;;;;;;12.53;10.80;;;;;;;11.20;100.00;97463.16;5055354;28;20254;-80
2022/04/24 07:36:00;;;;;;;12.10;10.90;;;;;;;11.13;100.00;97453.13;5051463;28;20185;-81
2022/04/24 07:38:30;;;;;;;12.63;11.17;;;;;;;11.14;100.00;97449.50;5055967;28;20213;-80
2022/04/24 07:40:59;;;;;;;12.43;11.17;;;;;;;11.10;100.00;97449.94;5049085;28;20189;-80
2022/04/24 07:43:27;;;;;;;12.10;10.80;;;;;;;11.14;100.00;97449.50;5049223;28;20193;-80
2022/04/24 07:45:58;;;;;;;12.80;11.50;;;;;;;11.12;100.00;97445.31;5010802;28;20208;-81
2022/04/24 07:48:27;;;;;;;13.27;11.80;;;;;;;11.11;100.00;97456.91;5011174;28;20230;-80
2022/04/24 07:50:55;;;;;;;12.93;11.63;;;;;;;11.27;100.00;97462.41;5005921;28;20202;-80
2022/04/24 07:53:24;;;;;;;13.40;11.87;;;;;;;11.47;100.00;97465.81;5008671;28;20658;-80
2022/04/24 07:55:54;;;;;;;13.47;11.30;;;;;;;11.46;100.00;97457.03;5009304;28;20222;-80
2022/04/24 07:58:24;;;;;;;17.33;11.77;;;;;;;11.45;100.00;97457.19;5010374;28;20347;-80
2022/04/24 08:00:55;;;;;;;13.73;12.17;;;;;;;11.38;100.00;97453.44;5011380;28;20206;-78
2022/04/24 08:03:23;;;;;;;14.73;12.23;;;;;;;11.30;100.00;97464.78;5008161;28;20206;-80
2022/04/24 08:05:52;;;;;;;12.83;11.53;;;;;;;11.40;100.00;97447.03;5012496;28;20281;-81
2022/04/24 08:08:22;;;;;;;13.80;11.33;;;;;;;11.36;100.00;97461.53;5010037;28;20195;-80
2022/04/24 08:10:54;;;;;;;12.80;11.50;;;;;;;11.59;100.00;97451.44;5034033;28;20188;-78
2022/04/24 08:13:24;;;;;;;13.33;11.43;;;;;;;11.91;100.00;97453.66;5052265;28;20292;-80
2022/04/24 08:15:54;;;;;;;12.93;11.63;;;;;;;11.87;100.00;97449.66;5052861;28;20200;-80
2022/04/24 08:18:24;;;;;;;12.87;11.57;;;;;;;12.09;100.00;97450.22;5052498;28;20220;-77
2022/04/24 08:20:52;;;;;;;13.10;11.70;;;;;;;12.22;100.00;97448.84;5050494;28;20194;-77
2022/04/24 08:23:21;;;;;;;13.50;12.20;;;;;;;12.27;100.00;97440.44;5053491;28;20212;-78
2022/04/24 08:25:49;;;;;;;12.87;11.50;;;;;;;12.36;100.00;97434.22;5053784;28;20196;-80
2022/04/24 08:28:21;;;;;;;12.17;10.97;;;;;;;12.49;100.00;97432.00;5050016;28;20199;-80
2022/04/24 08:30:50;;;;;;;14.03;11.30;;;;;;;12.47;100.00;97436.66;5057932;28;20284;-80
2022/04/24 08:33:19;;;;;;;12.03;10.70;;;;;;;12.67;100.00;97433.81;5049857;28;20203;-80
2022/04/24 08:35:49;;;;;;;13.27;11.07;;;;;;;12.83;100.00;97433.94;5050598;28;20189;-80
2022/04/24 08:38:17;;;;;;;11.90;10.70;;;;;;;12.79;100.00;97435.25;5051677;28;20201;-80
2022/04/24 08:40:47;;;;;;;12.30;10.93;;;;;;;13.15;100.00;97428.84;5052670;28;20672;-80
2022/04/24 08:43:16;;;;;;;12.90;11.20;;;;;;;13.08;100.00;97425.16;5059590;28;20205;-80
2022/04/24 08:45:47;;;;;;;12.07;10.70;;;;;;;13.10;100.00;97423.16;5051697;28;20224;-80
2022/04/24 08:48:16;;;;;;;11.73;10.43;;;;;;;13.27;100.00;97431.28;5053711;28;20300;-80
2022/04/24 08:50:46;;;;;;;11.53;10.03;;;;;;;13.53;100.00;97417.94;5052199;28;20212;-80
2022/04/24 08:53:16;;;;;;;13.20;10.27;;;;;;;13.53;100.00;97421.44;5058144;28;20189;-80
2022/04/24 08:55:47;;;;;;;11.03;10.03;;;;;;;13.64;100.00;97421.16;5056049;28;20192;-80
2022/04/24 08:58:16;;;;;;;11.53;10.33;;;;;;;13.66;100.00;97421.81;5052803;28;20197;-80
2022/04/24 09:00:46;;;;;;;11.90;10.23;;;;;;;13.90;100.00;97421.09;5053847;28;20223;-80
2022/04/24 09:03:16;;;;;;;11.90;10.30;;;;;;;13.95;100.00;97425.91;5054116;28;20380;-78
2022/04/24 09:05:46;;;;;;;11.63;9.80;;;;;;;13.82;100.00;97422.88;5057817;28;20193;-79
2022/04/24 09:08:17;;;;;;;11.37;9.70;;;;;;;13.91;100.00;97422.75;5012417;28;20194;-78
2022/04/24 09:11:08;;;;;;;12.70;9.87;;;;;;;13.95;100.00;97417.94;5018213;28;20288;-78
2022/04/24 09:16:26;;;;;;;10.97;9.30;;;;;;;14.05;100.00;97423.94;5012014;28;20230;-79
2022/04/24 09:18:56;;;;;;;11.10;9.50;;;;;;;14.16;100.00;97420.13;5013332;28;20326;-78
2022/04/24 09:21:30;;;;;;;10.77;9.60;;;;;;;14.25;100.00;97427.16;5014767;28;20200;-79
2022/04/24 09:24:02;;;;;;;11.67;9.67;;;;;;;14.24;100.00;97418.31;5030500;28;20194;-80
2022/04/24 09:26:33;;;;;;;10.13;9.13;;;;;;;14.33;100.00;97416.50;5045138;28;20193;-80
2022/04/24 09:29:12;;;;;;;10.90;8.97;;;;;;;14.54;100.00;97419.53;5054409;28;20229;-78
2022/04/24 09:31:47;;;;;;;10.30;8.93;;;;;;;14.37;100.00;97432.97;5067396;28;20192;-78
2022/04/24 09:34:18;;;;;;;9.27;8.27;;;;;;;14.45;100.00;97427.69;5069342;28;20199;-79
2022/04/24 09:36:48;;;;;;;8.93;8.03;;;;;;;14.44;100.00;97429.50;5067482;28;20201;-80
2022/04/24 09:39:27;;;;;;;8.60;7.73;;;;;;;14.35;98.08;97427.81;5074704;28;20188;-80
2022/04/24 09:42:04;;;;;;;8.27;7.43;;;;;;;14.63;96.17;97432.88;5072364;28;20390;-78
2022/04/24 09:44:48;;;;;;;9.70;8.00;;;;;;;14.54;96.93;97429.38;5071859;28;20204;-80
2022/04/24 09:47:43;;;;;;;10.10;8.93;;;;;;;14.41;100.00;97429.84;5074627;28;20200;-78
2022/04/24 09:50:13;;;;;;;9.63;8.63;;;;;;;14.52;100.00;97429.53;5068839;28;20630;-77
2022/04/24 09:52:48;;;;;;;9.50;8.40;;;;;;;14.68;100.00;97434.06;5068679;28;20192;-78
2022/04/24 09:55:22;;;;;;;9.50;8.50;;;;;;;14.69;100.00;97426.91;5072289;28;20203;-81
2022/04/24 09:57:51;;;;;;;9.47;8.50;;;;;;;14.62;100.00;97425.88;5072941;28;20204;-80
2022/04/24 10:00:20;;;;;;;8.83;7.83;;;;;;;14.78;100.00;97433.88;5071568;28;20258;-81
2022/04/24 10:02:55;;;;;;;10.33;8.10;;;;;;;14.51;100.00;97427.88;5069161;28;20203;-80
2022/04/24 10:05:29;;;;;;;8.57;7.77;;;;;;;14.84;96.82;97431.38;5072405;28;20202;-81
2022/04/24 10:07:58;;;;;;;11.27;8.17;;;;;;;14.86;95.69;97426.72;5072189;28;20251;-80
2022/04/24 10:10:27;;;;;;;8.50;7.60;;;;;;;15.08;94.24;97427.84;5076059;28;20193;-81
2022/04/24 10:12:55;;;;;;;9.23;8.33;;;;;;;14.89;94.62;97428.22;5072513;28;20195;-80
2022/04/24 10:15:26;;;;;;;9.43;8.53;;;;;;;14.71;94.16;97436.38;5068847;28;20226;-81
2022/04/24 10:18:33;;;;;;;9.93;7.97;;;;;;;14.62;94.61;97431.22;5073498;28;20196;-81
2022/04/24 10:21:24;;;;;;;9.30;8.03;;;;;;;14.51;93.50;97441.19;5073456;28;20219;-80
2022/04/24 10:23:53;;;;;;;9.23;8.27;;;;;;;14.32;93.30;97429.00;5069411;28;20205;-80
2022/04/24 10:26:24;;;;;;;12.43;8.53;;;;;;;14.22;93.98;97436.31;5070906;28;20195;-81
2022/04/24 10:29:05;;;;;;;9.00;8.13;;;;;;;14.22;96.39;97441.63;5072223;28;20192;-80
2022/04/24 10:31:44;;;;;;;16.37;13.07;;;;;;;14.36;95.23;97439.31;5068286;28;20189;-80
2022/04/24 10:34:18;;;;;;;12.03;10.27;;;;;;;14.37;95.78;97449.78;5070560;28;20192;-81
2022/04/24 10:37:06;;;;;;;13.33;10.63;;;;;;;14.38;98.14;97443.50;5073500;28;20207;-80
2022/04/24 10:39:35;;;;;;;9.30;8.33;;;;;;;14.35;98.23;97450.97;5076650;28;20250;-81
2022/04/24 10:42:12;;;;;;;10.33;9.20;;;;;;;14.30;96.54;97444.31;5019128;28;20222;-77
2022/04/24 10:44:52;;;;;;;9.70;8.70;;;;;;;14.45;97.02;97443.69;5011194;28;20202;-80
2022/04/24 10:47:26;;;;;;;10.43;8.63;;;;;;;14.48;97.56;97440.72;5029085;28;20234;-81
2022/04/24 10:50:06;;;;;;;10.10;8.70;;;;;;;14.35;98.71;97445.63;5011040;28;20233;-80
2022/04/24 10:52:41;;;;;;;10.00;8.60;;;;;;;14.32;100.00;97442.31;4995302;28;20204;-81
2022/04/24 10:55:12;;;;;;;10.40;8.47;;;;;;;14.35;100.00;97453.63;5007518;28;20220;-80
2022/04/24 10:57:43;;;;;;;10.30;8.90;;;;;;;14.24;100.00;97444.13;4962972;28;20201;-80
2022/04/24 11:00:22;;;;;;;10.70;9.53;;;;;;;14.20;100.00;97448.13;5012289;28;20707;-80
2022/04/24 11:02:52;;;;;;;12.13;8.77;;;;;;;14.19;100.00;97441.97;5011844;28;20198;-80
2022/04/24 11:05:26;;;;;;;10.90;9.50;;;;;;;14.06;100.00;97452.22;5010669;28;20711;-80
2022/04/24 11:08:04;;;;;;;12.73;9.40;;;;;;;14.07;100.00;97459.22;5072973;28;20196;-80
2022/04/24 11:10:42;;;;;;;9.17;8.27;;;;;;;14.10;100.00;97453.59;5073135;28;20207;-79
2022/04/24 11:13:17;;;;;;;10.37;8.87;;;;;;;14.15;100.00;97453.91;5075364;28;20212;-79
2022/04/24 11:15:47;;;;;;;9.63;8.57;;;;;;;14.22;100.00;97462.94;5036655;28;20204;-80
2022/04/24 11:18:25;;;;;;;13.67;10.73;;;;;;;14.21;100.00;97466.59;5075534;28;20201;-80
2022/04/24 11:20:56;;;;;;;10.27;8.20;;;;;;;14.16;100.00;97468.06;5067835;28;20216;-79
2022/04/24 11:23:32;;;;;;;10.87;7.90;;;;;;;14.16;98.80;97460.91;5071913;28;20636;-79
2022/04/24 11:26:02;;;;;;;11.83;8.40;;;;;;;14.13;98.52;97466.56;5073696;28;20200;-79
2022/04/24 11:28:35;;;;;;;12.47;9.90;;;;;;;14.14;99.55;97470.06;5069839;28;20207;-80
2022/04/24 11:31:15;;;;;;;15.10;10.60;;;;;;;14.17;99.73;97469.72;5074123;28;20227;-79
2022/04/24 11:33:55;;;;;;;9.67;7.70;;;;;;;14.15;96.13;97475.22;5073435;28;20196;-79
2022/04/24 11:36:25;;;;;;;7.97;6.90;;;;;;;14.12;95.42;97472.06;5073554;28;20215;-79
2022/04/24 11:38:56;;;;;;;7.80;6.73;;;;;;;14.30;92.47;97478.94;5073815;28;20196;-79
2022/04/24 11:41:29;;;;;;;8.90;7.20;;;;;;;14.22;92.35;97480.75;5069538;28;20334;-79
2022/04/24 11:44:01;;;;;;;7.13;6.20;;;;;;;14.11;91.01;97486.38;5070445;28;20203;-79